sensor_id;sensor_type;location;lat;lon;timestamp;temperature;humidity
8475;DHT22;4274;52.012;8.448;2023-02-28T00:00:33;-1.40;99.90
8475;DHT22;4274;52.012;8.448;2023-02-28T00:02:59;-1.40;99.90
8475;DHT22;4274;52.012;8.448;2023-02-28T00:05:27;-1.40;99.90
8475;DHT22;4274;52.012;8.448;2023-02-28T00:07:53;-1.50;99.90
8475;DHT22;4274;52.012;8.448;2023-02-28T00:10:24;-1.50;99.90
8475;DHT22;4274;52.012;8.448;2023-02-28T00:12:51;-1.50;99.90
8475;DHT22;4274;52.012;8.448;2023-02-28T00:15:17;-1.50;99.90
8475;DHT22;4274;52.012;8.448;2023-02-28T00:17:43;-1.40;99.90
8475;DHT22;4274;52.012;8.448;2023-02-28T00:20:10;-1.30;99.90
8475;DHT22;4274;52.012;8.448;2023-02-28T00:22:42;-1.20;99.90
8475;DHT22;4274;52.012;8.448;2023-02-28T00:25:09;-1.20;99.90
8475;DHT22;4274;52.012;8.448;2023-02-28T00:27:36;-1.10;99.90
8475;DHT22;4274;52.012;8.448;2023-02-28T00:30:02;-1.00;99.90
8475;DHT22;4274;52.012;8.448;2023-02-28T00:32:28;-1.00;99.90
8475;DHT22;4274;52.012;8.448;2023-02-28T00:34:53;-0.90;99.90
8475;DHT22;4274;52.012;8.448;2023-02-28T00:37:19;-0.90;99.90
8475;DHT22;4274;52.012;8.448;2023-02-28T00:39:45;-0.90;99.90
8475;DHT22;4274;52.012;8.448;2023-02-28T00:42:10;-0.90;99.90
8475;DHT22;4274;52.012;8.448;2023-02-28T00:44:36;-0.90;99.90
8475;DHT22;4274;52.012;8.448;2023-02-28T00:49:29;-0.90;99.90
8475;DHT22;4274;52.012;8.448;2023-02-28T00:51:55;-0.90;99.90
8475;DHT22;4274;52.012;8.448;2023-02-28T00:54:22;-0.90;99.90
8475;DHT22;4274;52.012;8.448;2023-02-28T00:56:48;-1.00;99.90
8475;DHT22;4274;52.012;8.448;2023-02-28T00:59:15;-0.90;99.90
8475;DHT22;4274;52.012;8.448;2023-02-28T01:01:42;-0.90;99.90
8475;DHT22;4274;52.012;8.448;2023-02-28T01:04:07;-1.00;99.90
8475;DHT22;4274;52.012;8.448;2023-02-28T01:06:33;-1.00;99.90
8475;DHT22;4274;52.012;8.448;2023-02-28T01:08:59;-1.00;99.90
8475;DHT22;4274;52.012;8.448;2023-02-28T01:11:25;-1.10;99.90
8475;DHT22;4274;52.012;8.448;2023-02-28T01:13:51;-1.10;99.90
8475;DHT22;4274;52.012;8.448;2023-02-28T01:16:17;-1.10;99.90
8475;DHT22;4274;52.012;8.448;2023-02-28T01:18:43;-1.00;99.90
8475;DHT22;4274;52.012;8.448;2023-02-28T01:21:12;-0.90;99.90
8475;DHT22;4274;52.012;8.448;2023-02-28T01:23:38;-0.80;99.90
8475;DHT22;4274;52.012;8.448;2023-02-28T01:26:13;-0.70;99.90
8475;DHT22;4274;52.012;8.448;2023-02-28T01:28:39;-0.70;99.90
8475;DHT22;4274;52.012;8.448;2023-02-28T01:31:05;-0.70;99.90
8475;DHT22;4274;52.012;8.448;2023-02-28T01:33:31;-0.70;99.90
8475;DHT22;4274;52.012;8.448;2023-02-28T01:36:04;-0.70;99.90
8475;DHT22;4274;52.012;8.448;2023-02-28T01:38:30;-0.70;99.90
8475;DHT22;4274;52.012;8.448;2023-02-28T01:40:56;-0.70;99.90
8475;DHT22;4274;52.012;8.448;2023-02-28T01:43:23;-0.70;99.90
8475;DHT22;4274;52.012;8.448;2023-02-28T01:45:49;-0.80;99.90
8475;DHT22;4274;52.012;8.448;2023-02-28T01:48:15;-0.80;99.90
8475;DHT22;4274;52.012;8.448;2023-02-28T01:50:43;-0.80;99.90
8475;DHT22;4274;52.012;8.448;2023-02-28T01:53:14;-0.80;99.90
8475;DHT22;4274;52.012;8.448;2023-02-28T01:55:43;-0.80;99.90
8475;DHT22;4274;52.012;8.448;2023-02-28T01:58:10;-0.90;99.90
8475;DHT22;4274;52.012;8.448;2023-02-28T02:00:36;-0.90;99.90
8475;DHT22;4274;52.012;8.448;2023-02-28T02:03:09;-0.90;99.90
8475;DHT22;4274;52.012;8.448;2023-02-28T02:05:38;-1.00;99.90
8475;DHT22;4274;52.012;8.448;2023-02-28T02:08:28;-1.00;99.90
8475;DHT22;4274;52.012;8.448;2023-02-28T02:10:55;-1.00;99.90
8475;DHT22;4274;52.012;8.448;2023-02-28T02:30:03;-0.80;99.90
8475;DHT22;4274;52.012;8.448;2023-02-28T02:38:09;-0.80;99.90
8475;DHT22;4274;52.012;8.448;2023-02-28T02:43:19;-0.90;99.90
8475;DHT22;4274;52.012;8.448;2023-02-28T02:46:00;-0.80;99.90
8475;DHT22;4274;52.012;8.448;2023-02-28T02:48:30;-0.90;99.90
8475;DHT22;4274;52.012;8.448;2023-02-28T02:51:01;-0.90;99.90
8475;DHT22;4274;52.012;8.448;2023-02-28T02:53:32;-1.00;99.90
8475;DHT22;4274;52.012;8.448;2023-02-28T02:56:01;-1.10;99.90
8475;DHT22;4274;52.012;8.448;2023-02-28T02:58:32;-1.20;99.90
8475;DHT22;4274;52.012;8.448;2023-02-28T03:01:01;-1.30;99.90
8475;DHT22;4274;52.012;8.448;2023-02-28T03:03:29;-1.40;99.90
8475;DHT22;4274;52.012;8.448;2023-02-28T03:05:58;-1.40;99.90
8475;DHT22;4274;52.012;8.448;2023-02-28T03:08:24;-1.50;99.90
8475;DHT22;4274;52.012;8.448;2023-02-28T03:10:51;-1.50;99.90
8475;DHT22;4274;52.012;8.448;2023-02-28T03:15:58;-1.50;99.90
8475;DHT22;4274;52.012;8.448;2023-02-28T03:18:54;-1.50;99.90
8475;DHT22;4274;52.012;8.448;2023-02-28T03:26:52;-1.50;99.90
8475;DHT22;4274;52.012;8.448;2023-02-28T03:29:32;-1.60;99.90
8475;DHT22;4274;52.012;8.448;2023-02-28T03:32:23;-1.70;99.90
8475;DHT22;4274;52.012;8.448;2023-02-28T03:34:59;-1.80;99.90
8475;DHT22;4274;52.012;8.448;2023-02-28T03:37:30;-1.90;99.90
8475;DHT22;4274;52.012;8.448;2023-02-28T03:40:00;-2.00;99.90
8475;DHT22;4274;52.012;8.448;2023-02-28T03:42:29;-2.00;99.90
8475;DHT22;4274;52.012;8.448;2023-02-28T03:44:59;-2.00;99.90
8475;DHT22;4274;52.012;8.448;2023-02-28T03:52:42;-2.00;99.90
8475;DHT22;4274;52.012;8.448;2023-02-28T03:55:13;-2.00;99.90
8475;DHT22;4274;52.012;8.448;2023-02-28T03:57:41;-2.00;99.90
8475;DHT22;4274;52.012;8.448;2023-02-28T04:00:14;-2.00;99.90
8475;DHT22;4274;52.012;8.448;2023-02-28T04:02:43;-2.00;99.90
8475;DHT22;4274;52.012;8.448;2023-02-28T04:05:08;-2.00;99.90
8475;DHT22;4274;52.012;8.448;2023-02-28T04:07:35;-2.00;99.90
8475;DHT22;4274;52.012;8.448;2023-02-28T04:10:00;-1.90;99.90
8475;DHT22;4274;52.012;8.448;2023-02-28T04:12:26;-1.90;99.90
8475;DHT22;4274;52.012;8.448;2023-02-28T04:14:51;-1.80;99.90
8475;DHT22;4274;52.012;8.448;2023-02-28T04:17:17;-1.80;99.90
8475;DHT22;4274;52.012;8.448;2023-02-28T04:19:44;-1.80;99.90
8475;DHT22;4274;52.012;8.448;2023-02-28T04:22:09;-1.70;99.90
8475;DHT22;4274;52.012;8.448;2023-02-28T04:24:35;-1.70;99.90
8475;DHT22;4274;52.012;8.448;2023-02-28T04:27:02;-1.70;99.90
8475;DHT22;4274;52.012;8.448;2023-02-28T04:29:31;-1.70;99.90
8475;DHT22;4274;52.012;8.448;2023-02-28T04:31:58;-1.80;99.90
8475;DHT22;4274;52.012;8.448;2023-02-28T04:34:29;-1.90;99.90
8475;DHT22;4274;52.012;8.448;2023-02-28T04:36:55;-1.90;99.90
8475;DHT22;4274;52.012;8.448;2023-02-28T04:39:24;-1.90;99.90
8475;DHT22;4274;52.012;8.448;2023-02-28T04:41:50;-2.00;99.90
8475;DHT22;4274;52.012;8.448;2023-02-28T04:44:16;-2.00;99.90
8475;DHT22;4274;52.012;8.448;2023-02-28T04:46:43;-2.00;99.90
8475;DHT22;4274;52.012;8.448;2023-02-28T04:49:11;-1.90;99.90
8475;DHT22;4274;52.012;8.448;2023-02-28T04:51:36;-1.90;99.90
8475;DHT22;4274;52.012;8.448;2023-02-28T04:54:02;-1.80;99.90
8475;DHT22;4274;52.012;8.448;2023-02-28T04:56:28;-1.80;99.90
8475;DHT22;4274;52.012;8.448;2023-02-28T04:58:53;-1.80;99.90
8475;DHT22;4274;52.012;8.448;2023-02-28T05:01:25;-1.70;99.90
8475;DHT22;4274;52.012;8.448;2023-02-28T05:03:52;-1.70;99.90
8475;DHT22;4274;52.012;8.448;2023-02-28T05:06:18;-1.70;99.90
8475;DHT22;4274;52.012;8.448;2023-02-28T05:08:44;-1.70;99.90
8475;DHT22;4274;52.012;8.448;2023-02-28T05:11:17;-1.70;99.90
8475;DHT22;4274;52.012;8.448;2023-02-28T05:13:43;-1.80;99.90
8475;DHT22;4274;52.012;8.448;2023-02-28T05:16:09;-1.80;99.90
8475;DHT22;4274;52.012;8.448;2023-02-28T05:18:35;-1.80;99.90
8475;DHT22;4274;52.012;8.448;2023-02-28T05:21:01;-1.80;99.90
8475;DHT22;4274;52.012;8.448;2023-02-28T05:23:27;-1.80;99.90
8475;DHT22;4274;52.012;8.448;2023-02-28T05:25:53;-1.80;99.90
8475;DHT22;4274;52.012;8.448;2023-02-28T05:28:19;-1.70;99.90
8475;DHT22;4274;52.012;8.448;2023-02-28T05:30:45;-1.70;99.90
8475;DHT22;4274;52.012;8.448;2023-02-28T05:33:11;-1.70;99.90
8475;DHT22;4274;52.012;8.448;2023-02-28T05:35:41;-1.70;99.90
8475;DHT22;4274;52.012;8.448;2023-02-28T05:38:10;-1.70;99.90
8475;DHT22;4274;52.012;8.448;2023-02-28T05:40:38;-1.60;99.90
8475;DHT22;4274;52.012;8.448;2023-02-28T05:43:04;-1.60;99.90
8475;DHT22;4274;52.012;8.448;2023-02-28T05:45:30;-1.60;99.90
8475;DHT22;4274;52.012;8.448;2023-02-28T05:47:55;-1.60;99.90
8475;DHT22;4274;52.012;8.448;2023-02-28T05:50:21;-1.60;99.90
8475;DHT22;4274;52.012;8.448;2023-02-28T05:52:51;-1.60;99.90
8475;DHT22;4274;52.012;8.448;2023-02-28T05:55:16;-1.70;99.90
8475;DHT22;4274;52.012;8.448;2023-02-28T05:57:42;-1.60;99.90
8475;DHT22;4274;52.012;8.448;2023-02-28T06:00:08;-1.70;99.90
8475;DHT22;4274;52.012;8.448;2023-02-28T06:02:34;-1.70;99.90
8475;DHT22;4274;52.012;8.448;2023-02-28T06:05:00;-1.60;99.90
8475;DHT22;4274;52.012;8.448;2023-02-28T06:07:25;-1.60;99.90
8475;DHT22;4274;52.012;8.448;2023-02-28T06:09:51;-1.70;99.90
8475;DHT22;4274;52.012;8.448;2023-02-28T06:12:16;-1.70;99.90
8475;DHT22;4274;52.012;8.448;2023-02-28T06:14:43;-1.70;99.90
8475;DHT22;4274;52.012;8.448;2023-02-28T06:17:09;-1.70;99.90
8475;DHT22;4274;52.012;8.448;2023-02-28T06:19:37;-1.70;99.90
8475;DHT22;4274;52.012;8.448;2023-02-28T06:22:04;-1.70;99.90
8475;DHT22;4274;52.012;8.448;2023-02-28T06:24:30;-1.80;99.90
8475;DHT22;4274;52.012;8.448;2023-02-28T06:26:56;-1.70;99.90
8475;DHT22;4274;52.012;8.448;2023-02-28T06:29:24;-1.60;99.90
8475;DHT22;4274;52.012;8.448;2023-02-28T06:31:50;-1.60;99.90
8475;DHT22;4274;52.012;8.448;2023-02-28T06:34:15;-1.50;99.90
8475;DHT22;4274;52.012;8.448;2023-02-28T06:36:42;-1.60;99.90
8475;DHT22;4274;52.012;8.448;2023-02-28T06:39:08;-1.50;99.90
8475;DHT22;4274;52.012;8.448;2023-02-28T06:41:35;-1.50;99.90
8475;DHT22;4274;52.012;8.448;2023-02-28T06:44:04;-1.50;99.90
8475;DHT22;4274;52.012;8.448;2023-02-28T06:46:31;-1.50;99.90
8475;DHT22;4274;52.012;8.448;2023-02-28T06:48:57;-1.40;99.90
8475;DHT22;4274;52.012;8.448;2023-02-28T06:51:23;-1.30;99.90
8475;DHT22;4274;52.012;8.448;2023-02-28T06:53:50;-1.20;99.90
8475;DHT22;4274;52.012;8.448;2023-02-28T06:56:17;-1.10;99.90
8475;DHT22;4274;52.012;8.448;2023-02-28T06:58:49;-1.00;99.90
8475;DHT22;4274;52.012;8.448;2023-02-28T07:01:15;-0.90;99.90
8475;DHT22;4274;52.012;8.448;2023-02-28T07:03:40;-0.80;99.90
8475;DHT22;4274;52.012;8.448;2023-02-28T07:06:06;-0.70;99.90
8475;DHT22;4274;52.012;8.448;2023-02-28T07:08:33;-0.60;99.90
8475;DHT22;4274;52.012;8.448;2023-02-28T07:10:58;-0.50;99.90
8475;DHT22;4274;52.012;8.448;2023-02-28T07:13:24;-0.50;99.90
8475;DHT22;4274;52.012;8.448;2023-02-28T07:16:10;-0.40;99.90
8475;DHT22;4274;52.012;8.448;2023-02-28T07:18:37;-0.30;99.90
8475;DHT22;4274;52.012;8.448;2023-02-28T07:21:05;-0.20;99.90
8475;DHT22;4274;52.012;8.448;2023-02-28T07:23:32;-0.20;99.90
8475;DHT22;4274;52.012;8.448;2023-02-28T07:25:58;-0.10;99.90
8475;DHT22;4274;52.012;8.448;2023-02-28T07:28:24;0.00;99.90
8475;DHT22;4274;52.012;8.448;2023-02-28T07:30:49;0.00;99.90
8475;DHT22;4274;52.012;8.448;2023-02-28T07:33:15;0.10;99.90
8475;DHT22;4274;52.012;8.448;2023-02-28T07:35:41;0.10;99.90
8475;DHT22;4274;52.012;8.448;2023-02-28T07:38:07;0.20;99.90
8475;DHT22;4274;52.012;8.448;2023-02-28T07:40:36;0.30;99.90
8475;DHT22;4274;52.012;8.448;2023-02-28T07:43:02;0.30;99.90
8475;DHT22;4274;52.012;8.448;2023-02-28T07:45:28;0.50;99.90
8475;DHT22;4274;52.012;8.448;2023-02-28T07:47:55;0.60;99.90
8475;DHT22;4274;52.012;8.448;2023-02-28T07:50:21;0.60;99.90
8475;DHT22;4274;52.012;8.448;2023-02-28T07:52:46;0.70;99.90
8475;DHT22;4274;52.012;8.448;2023-02-28T07:55:12;0.90;99.90
8475;DHT22;4274;52.012;8.448;2023-02-28T07:57:39;1.00;99.90
8475;DHT22;4274;52.012;8.448;2023-02-28T08:00:07;1.20;99.90
8475;DHT22;4274;52.012;8.448;2023-02-28T08:02:34;1.40;99.90
8475;DHT22;4274;52.012;8.448;2023-02-28T08:05:00;1.70;99.90
8475;DHT22;4274;52.012;8.448;2023-02-28T08:07:26;1.90;99.90
8475;DHT22;4274;52.012;8.448;2023-02-28T08:09:52;2.50;99.90
8475;DHT22;4274;52.012;8.448;2023-02-28T08:12:17;3.20;99.90
8475;DHT22;4274;52.012;8.448;2023-02-28T08:14:43;4.00;99.90
8475;DHT22;4274;52.012;8.448;2023-02-28T08:17:09;4.80;99.90
8475;DHT22;4274;52.012;8.448;2023-02-28T08:19:35;5.50;99.90
8475;DHT22;4274;52.012;8.448;2023-02-28T08:22:01;6.10;99.90
8475;DHT22;4274;52.012;8.448;2023-02-28T08:24:27;6.50;99.90
8475;DHT22;4274;52.012;8.448;2023-02-28T08:26:52;6.80;99.90
8475;DHT22;4274;52.012;8.448;2023-02-28T08:29:18;7.20;99.90
8475;DHT22;4274;52.012;8.448;2023-02-28T08:31:43;7.70;99.90
8475;DHT22;4274;52.012;8.448;2023-02-28T08:34:12;8.20;99.90
8475;DHT22;4274;52.012;8.448;2023-02-28T08:36:38;8.60;99.50
8475;DHT22;4274;52.012;8.448;2023-02-28T08:39:04;8.80;99.90
8475;DHT22;4274;52.012;8.448;2023-02-28T08:41:30;9.00;98.50
8475;DHT22;4274;52.012;8.448;2023-02-28T08:43:56;9.20;96.30
8475;DHT22;4274;52.012;8.448;2023-02-28T08:46:22;9.10;97.00
8475;DHT22;4274;52.012;8.448;2023-02-28T08:48:51;9.20;97.10
8475;DHT22;4274;52.012;8.448;2023-02-28T08:51:18;9.40;95.70
8475;DHT22;4274;52.012;8.448;2023-02-28T08:53:47;9.60;95.50
8475;DHT22;4274;52.012;8.448;2023-02-28T08:56:15;9.70;94.30
8475;DHT22;4274;52.012;8.448;2023-02-28T08:58:42;9.60;94.60
8475;DHT22;4274;52.012;8.448;2023-02-28T09:01:19;9.70;92.40
8475;DHT22;4274;52.012;8.448;2023-02-28T09:03:47;9.60;91.20
8475;DHT22;4274;52.012;8.448;2023-02-28T09:06:14;9.50;91.40
8475;DHT22;4274;52.012;8.448;2023-02-28T09:08:40;9.70;92.80
8475;DHT22;4274;52.012;8.448;2023-02-28T09:11:06;10.10;90.30
8475;DHT22;4274;52.012;8.448;2023-02-28T09:13:32;10.30;91.20
8475;DHT22;4274;52.012;8.448;2023-02-28T09:16:00;10.60;91.00
8475;DHT22;4274;52.012;8.448;2023-02-28T09:18:26;10.90;91.00
8475;DHT22;4274;52.012;8.448;2023-02-28T09:20:52;11.10;86.40
8475;DHT22;4274;52.012;8.448;2023-02-28T09:23:17;10.80;88.30
8475;DHT22;4274;52.012;8.448;2023-02-28T09:25:48;10.90;90.60
8475;DHT22;4274;52.012;8.448;2023-02-28T09:28:14;11.40;85.90
8475;DHT22;4274;52.012;8.448;2023-02-28T09:30:41;11.90;88.30
8475;DHT22;4274;52.012;8.448;2023-02-28T09:33:07;12.60;82.30
8475;DHT22;4274;52.012;8.448;2023-02-28T09:35:33;12.90;86.90
8475;DHT22;4274;52.012;8.448;2023-02-28T09:37:59;13.10;84.30
8475;DHT22;4274;52.012;8.448;2023-02-28T09:40:25;12.70;80.90
8475;DHT22;4274;52.012;8.448;2023-02-28T09:42:53;12.10;75.40
8475;DHT22;4274;52.012;8.448;2023-02-28T09:45:30;11.40;74.10
8475;DHT22;4274;52.012;8.448;2023-02-28T09:48:10;10.90;75.10
8475;DHT22;4274;52.012;8.448;2023-02-28T09:50:38;10.40;75.20
8475;DHT22;4274;52.012;8.448;2023-02-28T09:53:29;9.70;76.80
8475;DHT22;4274;52.012;8.448;2023-02-28T09:58:42;8.10;79.30
8475;DHT22;4274;52.012;8.448;2023-02-28T10:03:49;7.50;83.90
8475;DHT22;4274;52.012;8.448;2023-02-28T10:06:21;8.00;86.10
8475;DHT22;4274;52.012;8.448;2023-02-28T10:08:53;8.80;85.40
8475;DHT22;4274;52.012;8.448;2023-02-28T10:11:22;9.40;82.50
8475;DHT22;4274;52.012;8.448;2023-02-28T10:14:02;9.90;82.50
8475;DHT22;4274;52.012;8.448;2023-02-28T10:17:00;10.20;78.10
8475;DHT22;4274;52.012;8.448;2023-02-28T10:19:35;10.20;79.10
8475;DHT22;4274;52.012;8.448;2023-02-28T10:22:11;10.40;79.20
8475;DHT22;4274;52.012;8.448;2023-02-28T10:24:41;10.60;78.60
8475;DHT22;4274;52.012;8.448;2023-02-28T10:27:15;10.70;78.10
8475;DHT22;4274;52.012;8.448;2023-02-28T10:29:43;11.00;77.20
8475;DHT22;4274;52.012;8.448;2023-02-28T10:32:12;11.00;75.50
8475;DHT22;4274;52.012;8.448;2023-02-28T10:34:39;11.00;75.80
8475;DHT22;4274;52.012;8.448;2023-02-28T10:37:05;11.20;75.80
8475;DHT22;4274;52.012;8.448;2023-02-28T10:39:41;10.70;75.30
8475;DHT22;4274;52.012;8.448;2023-02-28T10:42:28;10.40;76.30
8475;DHT22;4274;52.012;8.448;2023-02-28T10:47:43;10.80;77.80
8475;DHT22;4274;52.012;8.448;2023-02-28T10:56:15;12.00;74.50
8475;DHT22;4274;52.012;8.448;2023-02-28T10:59:46;13.00;75.00
8475;DHT22;4274;52.012;8.448;2023-02-28T11:01:47;13.60;73.90
8475;DHT22;4274;52.012;8.448;2023-02-28T11:07:25;13.20;68.90
8475;DHT22;4274;52.012;8.448;2023-02-28T11:09:59;11.30;69.50
8475;DHT22;4274;52.012;8.448;2023-02-28T11:12:40;9.10;73.50
8475;DHT22;4274;52.012;8.448;2023-02-28T11:20:30;6.10;81.00
8475;DHT22;4274;52.012;8.448;2023-02-28T11:22:57;5.70;81.40
8475;DHT22;4274;52.012;8.448;2023-02-28T11:25:24;5.40;83.00
8475;DHT22;4274;52.012;8.448;2023-02-28T11:28:25;5.10;83.50
8475;DHT22;4274;52.012;8.448;2023-02-28T11:33:31;4.70;85.30
8475;DHT22;4274;52.012;8.448;2023-02-28T11:38:48;7.70;83.60
8475;DHT22;4274;52.012;8.448;2023-02-28T11:52:25;12.70;72.00
8475;DHT22;4274;52.012;8.448;2023-02-28T12:00:44;12.40;71.30
8475;DHT22;4274;52.012;8.448;2023-02-28T12:11:53;14.60;68.10
8475;DHT22;4274;52.012;8.448;2023-02-28T12:23:15;11.70;68.10
8475;DHT22;4274;52.012;8.448;2023-02-28T12:28:40;12.00;69.00
8475;DHT22;4274;52.012;8.448;2023-02-28T12:31:18;12.30;71.30
8475;DHT22;4274;52.012;8.448;2023-02-28T12:33:50;12.50;68.10
8475;DHT22;4274;52.012;8.448;2023-02-28T12:36:19;12.40;68.80
8475;DHT22;4274;52.012;8.448;2023-02-28T12:41:22;12.30;68.80
8475;DHT22;4274;52.012;8.448;2023-02-28T12:43:58;12.40;68.10
8475;DHT22;4274;52.012;8.448;2023-02-28T12:46:31;12.50;68.30
8475;DHT22;4274;52.012;8.448;2023-02-28T12:49:00;12.20;68.80
8475;DHT22;4274;52.012;8.448;2023-02-28T12:51:28;12.00;69.20
8475;DHT22;4274;52.012;8.448;2023-02-28T12:56:44;12.40;68.90
8475;DHT22;4274;52.012;8.448;2023-02-28T13:07:56;12.00;69.50
8475;DHT22;4274;52.012;8.448;2023-02-28T13:10:38;12.30;69.80
8475;DHT22;4274;52.012;8.448;2023-02-28T13:13:05;12.40;68.80
8475;DHT22;4274;52.012;8.448;2023-02-28T13:15:31;12.40;68.90
8475;DHT22;4274;52.012;8.448;2023-02-28T13:18:00;12.30;69.30
8475;DHT22;4274;52.012;8.448;2023-02-28T13:20:35;12.30;68.70
8475;DHT22;4274;52.012;8.448;2023-02-28T13:23:01;11.80;68.90
8475;DHT22;4274;52.012;8.448;2023-02-28T13:27:58;11.30;70.40
8475;DHT22;4274;52.012;8.448;2023-02-28T13:33:29;11.50;71.20
8475;DHT22;4274;52.012;8.448;2023-02-28T13:36:07;11.90;70.10
8475;DHT22;4274;52.012;8.448;2023-02-28T13:38:41;12.00;69.40
8475;DHT22;4274;52.012;8.448;2023-02-28T13:44:05;11.80;70.90
8475;DHT22;4274;52.012;8.448;2023-02-28T13:46:32;11.50;69.40
8475;DHT22;4274;52.012;8.448;2023-02-28T13:52:11;11.40;68.80
8475;DHT22;4274;52.012;8.448;2023-02-28T13:58:19;10.60;69.90
8475;DHT22;4274;52.012;8.448;2023-02-28T14:06:10;11.00;71.20
8475;DHT22;4274;52.012;8.448;2023-02-28T14:08:48;11.10;70.60
8475;DHT22;4274;52.012;8.448;2023-02-28T14:11:39;11.40;70.80
8475;DHT22;4274;52.012;8.448;2023-02-28T14:14:07;11.50;71.00
8475;DHT22;4274;52.012;8.448;2023-02-28T14:16:40;11.70;71.40
8475;DHT22;4274;52.012;8.448;2023-02-28T14:21:50;11.30;70.20
8475;DHT22;4274;52.012;8.448;2023-02-28T14:32:37;10.10;72.20
8475;DHT22;4274;52.012;8.448;2023-02-28T14:37:41;8.50;75.40
8475;DHT22;4274;52.012;8.448;2023-02-28T14:40:29;7.70;76.90
8475;DHT22;4274;52.012;8.448;2023-02-28T14:42:58;7.10;78.10
8475;DHT22;4274;52.012;8.448;2023-02-28T14:45:31;6.70;79.50
8475;DHT22;4274;52.012;8.448;2023-02-28T14:47:58;6.40;80.50
8475;DHT22;4274;52.012;8.448;2023-02-28T14:50:30;6.20;81.40
8475;DHT22;4274;52.012;8.448;2023-02-28T14:52:58;6.10;82.40
8475;DHT22;4274;52.012;8.448;2023-02-28T14:55:27;6.00;83.30
8475;DHT22;4274;52.012;8.448;2023-02-28T14:57:56;5.90;82.90
8475;DHT22;4274;52.012;8.448;2023-02-28T15:00:25;5.70;83.40
8475;DHT22;4274;52.012;8.448;2023-02-28T15:02:52;5.50;84.00
8475;DHT22;4274;52.012;8.448;2023-02-28T15:05:23;5.30;85.00
8475;DHT22;4274;52.012;8.448;2023-02-28T15:07:59;5.20;85.00
8475;DHT22;4274;52.012;8.448;2023-02-28T15:10:27;5.10;85.20
8475;DHT22;4274;52.012;8.448;2023-02-28T15:15:22;5.10;86.70
8475;DHT22;4274;52.012;8.448;2023-02-28T15:17:52;5.10;87.70
8475;DHT22;4274;52.012;8.448;2023-02-28T15:20:19;5.00;88.50
8475;DHT22;4274;52.012;8.448;2023-02-28T15:22:46;5.00;88.90
8475;DHT22;4274;52.012;8.448;2023-02-28T15:25:16;4.90;89.00
8475;DHT22;4274;52.012;8.448;2023-02-28T15:27:49;4.90;90.00
8475;DHT22;4274;52.012;8.448;2023-02-28T15:30:21;4.90;90.00
8475;DHT22;4274;52.012;8.448;2023-02-28T15:35:37;5.00;90.60
8475;DHT22;4274;52.012;8.448;2023-02-28T15:38:25;4.90;90.50
8475;DHT22;4274;52.012;8.448;2023-02-28T15:40:53;4.80;90.60
8475;DHT22;4274;52.012;8.448;2023-02-28T15:43:33;4.80;91.10
8475;DHT22;4274;52.012;8.448;2023-02-28T15:46:11;4.70;91.20
8475;DHT22;4274;52.012;8.448;2023-02-28T15:48:55;4.70;91.50
8475;DHT22;4274;52.012;8.448;2023-02-28T15:51:32;4.60;91.60
8475;DHT22;4274;52.012;8.448;2023-02-28T15:54:02;4.60;91.90
8475;DHT22;4274;52.012;8.448;2023-02-28T15:56:35;4.60;92.20
8475;DHT22;4274;52.012;8.448;2023-02-28T15:59:06;4.60;92.10
8475;DHT22;4274;52.012;8.448;2023-02-28T16:04:03;4.50;92.60
8475;DHT22;4274;52.012;8.448;2023-02-28T16:06:45;4.40;92.80
8475;DHT22;4274;52.012;8.448;2023-02-28T16:09:15;4.30;93.10
8475;DHT22;4274;52.012;8.448;2023-02-28T16:11:47;4.20;93.10
8475;DHT22;4274;52.012;8.448;2023-02-28T16:14:24;4.20;93.50
8475;DHT22;4274;52.012;8.448;2023-02-28T16:16:54;4.20;93.60
8475;DHT22;4274;52.012;8.448;2023-02-28T16:19:20;4.20;93.60
8475;DHT22;4274;52.012;8.448;2023-02-28T16:21:47;4.10;93.60
8475;DHT22;4274;52.012;8.448;2023-02-28T16:24:13;4.10;93.50
8475;DHT22;4274;52.012;8.448;2023-02-28T16:26:40;4.10;93.70
8475;DHT22;4274;52.012;8.448;2023-02-28T16:29:08;4.00;93.60
8475;DHT22;4274;52.012;8.448;2023-02-28T16:31:37;4.00;93.60
8475;DHT22;4274;52.012;8.448;2023-02-28T16:34:04;3.90;93.70
8475;DHT22;4274;52.012;8.448;2023-02-28T16:36:30;3.80;93.80
8475;DHT22;4274;52.012;8.448;2023-02-28T16:38:55;3.80;93.80
8475;DHT22;4274;52.012;8.448;2023-02-28T16:41:24;3.70;93.90
8475;DHT22;4274;52.012;8.448;2023-02-28T16:43:53;3.70;94.20
8475;DHT22;4274;52.012;8.448;2023-02-28T16:46:20;3.60;94.30
8475;DHT22;4274;52.012;8.448;2023-02-28T16:48:46;3.50;94.40
8475;DHT22;4274;52.012;8.448;2023-02-28T16:51:17;3.50;94.90
8475;DHT22;4274;52.012;8.448;2023-02-28T16:53:43;3.40;95.00
8475;DHT22;4274;52.012;8.448;2023-02-28T16:56:27;3.40;95.10
8475;DHT22;4274;52.012;8.448;2023-02-28T16:58:57;3.30;95.40
8475;DHT22;4274;52.012;8.448;2023-02-28T17:01:24;3.30;95.50
8475;DHT22;4274;52.012;8.448;2023-02-28T17:03:50;3.20;96.00
8475;DHT22;4274;52.012;8.448;2023-02-28T17:06:21;3.20;96.00
8475;DHT22;4274;52.012;8.448;2023-02-28T17:08:51;3.20;96.40
8475;DHT22;4274;52.012;8.448;2023-02-28T17:11:18;3.10;96.40
8475;DHT22;4274;52.012;8.448;2023-02-28T17:13:44;3.00;97.00
8475;DHT22;4274;52.012;8.448;2023-02-28T17:16:29;3.00;96.90
8475;DHT22;4274;52.012;8.448;2023-02-28T17:18:58;2.90;97.20
8475;DHT22;4274;52.012;8.448;2023-02-28T17:21:24;2.80;97.70
8475;DHT22;4274;52.012;8.448;2023-02-28T17:23:50;2.80;97.70
8475;DHT22;4274;52.012;8.448;2023-02-28T17:26:18;2.80;98.50
8475;DHT22;4274;52.012;8.448;2023-02-28T17:28:48;2.80;98.70
8475;DHT22;4274;52.012;8.448;2023-02-28T17:31:14;2.80;98.50
8475;DHT22;4274;52.012;8.448;2023-02-28T17:33:39;2.80;98.90
8475;DHT22;4274;52.012;8.448;2023-02-28T17:36:06;2.70;98.50
8475;DHT22;4274;52.012;8.448;2023-02-28T17:38:32;2.60;99.60
8475;DHT22;4274;52.012;8.448;2023-02-28T17:40:57;2.50;99.60
8475;DHT22;4274;52.012;8.448;2023-02-28T17:43:25;2.40;99.90
8475;DHT22;4274;52.012;8.448;2023-02-28T17:45:50;2.40;99.90
8475;DHT22;4274;52.012;8.448;2023-02-28T17:48:16;2.30;99.90
8475;DHT22;4274;52.012;8.448;2023-02-28T17:50:42;2.40;99.90
8475;DHT22;4274;52.012;8.448;2023-02-28T17:53:08;2.40;99.90
8475;DHT22;4274;52.012;8.448;2023-02-28T17:55:33;2.40;99.90
8475;DHT22;4274;52.012;8.448;2023-02-28T17:58:00;2.40;99.90
8475;DHT22;4274;52.012;8.448;2023-02-28T18:00:25;2.40;99.90
8475;DHT22;4274;52.012;8.448;2023-02-28T18:02:51;2.30;99.90
8475;DHT22;4274;52.012;8.448;2023-02-28T18:05:17;2.20;99.90
8475;DHT22;4274;52.012;8.448;2023-02-28T18:07:42;2.10;99.90
8475;DHT22;4274;52.012;8.448;2023-02-28T18:10:21;2.00;99.90
8475;DHT22;4274;52.012;8.448;2023-02-28T18:12:48;1.90;99.90
8475;DHT22;4274;52.012;8.448;2023-02-28T18:15:14;1.90;99.90
8475;DHT22;4274;52.012;8.448;2023-02-28T18:17:41;1.90;99.90
8475;DHT22;4274;52.012;8.448;2023-02-28T18:20:08;1.90;99.90
8475;DHT22;4274;52.012;8.448;2023-02-28T18:22:35;1.90;99.90
8475;DHT22;4274;52.012;8.448;2023-02-28T18:25:02;1.90;99.90
8475;DHT22;4274;52.012;8.448;2023-02-28T18:27:27;1.90;99.90
8475;DHT22;4274;52.012;8.448;2023-02-28T18:29:53;1.80;99.90
8475;DHT22;4274;52.012;8.448;2023-02-28T18:32:18;1.80;99.90
8475;DHT22;4274;52.012;8.448;2023-02-28T18:34:44;1.80;99.90
8475;DHT22;4274;52.012;8.448;2023-02-28T18:37:10;1.70;99.90
8475;DHT22;4274;52.012;8.448;2023-02-28T18:39:36;1.70;99.90
8475;DHT22;4274;52.012;8.448;2023-02-28T18:42:01;1.70;99.90
8475;DHT22;4274;52.012;8.448;2023-02-28T18:44:27;1.60;99.90
8475;DHT22;4274;52.012;8.448;2023-02-28T18:46:53;1.70;99.90
8475;DHT22;4274;52.012;8.448;2023-02-28T18:49:19;1.60;99.90
8475;DHT22;4274;52.012;8.448;2023-02-28T18:51:45;1.60;99.90
8475;DHT22;4274;52.012;8.448;2023-02-28T18:54:12;1.60;99.90
8475;DHT22;4274;52.012;8.448;2023-02-28T18:56:38;1.60;99.90
8475;DHT22;4274;52.012;8.448;2023-02-28T18:59:04;1.70;99.90